Time;durP1;ratioP1;P1;durP2;ratioP2;P2;SDS_P1;SDS_P2;PMS_P1;PMS_P2;Temp;Humidity;BMP_temperature;BMP_pressure;BME280_temperature;BME280_humidity;BME280_pressure;Samples;Min_cycle;Max_cycle;Signal;HPM_P1;HPM_P2
2022/02/22 00:02:22;;;;;;;29.70;6.45;;;;;;;9.27;56.61;99913.88;4824233;29;119821;-81
2022/02/22 00:04:54;;;;;;;40.05;7.22;;;;;;;9.67;56.89;99979.31;4809546;28;123064;-82
2022/02/22 00:07:21;;;;;;;33.30;7.40;;;;;;;9.81;56.84;99995.84;4836712;28;122626;-82
2022/02/22 00:09:47;;;;;;;37.45;7.55;;;;;;;9.57;56.75;99953.19;4840791;28;122301;-83
2022/02/22 00:12:16;;;;;;;39.33;7.50;;;;;;;9.49;56.75;99952.75;4819577;29;119464;-82
2022/02/22 00:14:45;;;;;;;31.98;6.93;;;;;;;9.61;56.64;99964.72;4846423;28;119947;-81
2022/02/22 00:17:13;;;;;;;34.28;6.65;;;;;;;9.62;56.46;99966.25;4846042;28;121711;-81
2022/02/22 00:19:39;;;;;;;34.35;7.30;;;;;;;9.92;56.93;100008.28;4824104;29;119922;-80
2022/02/22 00:22:05;;;;;;;40.70;7.57;;;;;;;9.59;57.01;99978.88;4826213;28;119864;-81
2022/02/22 00:24:30;;;;;;;40.38;7.50;;;;;;;9.72;55.88;99993.16;4807490;29;122938;-81
2022/02/22 00:26:59;;;;;;;32.83;6.40;;;;;;;9.87;56.22;100015.16;4827172;29;119946;-81
2022/02/22 00:29:25;;;;;;;43.42;8.13;;;;;;;9.91;56.80;100025.94;4848712;28;119494;-82
2022/02/22 00:31:51;;;;;;;46.60;8.50;;;;;;;9.92;56.64;100027.47;4839916;28;119468;-82
2022/02/22 00:34:17;;;;;;;39.17;7.10;;;;;;;9.91;57.07;100045.13;4841548;28;122305;-81
2022/02/22 00:36:44;;;;;;;35.92;6.85;;;;;;;9.91;57.25;100040.41;4815196;29;122654;-81
2022/02/22 00:39:10;;;;;;;42.92;8.02;;;;;;;9.90;56.48;100052.59;4822161;29;121568;-81
2022/02/22 00:41:37;;;;;;;41.08;7.10;;;;;;;9.88;56.65;100048.78;4829116;28;119915;-82
2022/02/22 00:44:03;;;;;;;37.88;6.75;;;;;;;9.83;56.30;100048.19;4837032;28;119399;-81
2022/02/22 00:46:29;;;;;;;38.05;7.40;;;;;;;9.85;55.67;100056.72;4819694;29;119624;-82
2022/02/22 00:48:55;;;;;;;35.55;6.53;;;;;;;9.78;55.14;100051.56;4812055;29;121022;-81
2022/02/22 00:51:20;;;;;;;33.08;6.55;;;;;;;9.81;54.60;100078.03;4829802;28;120133;-81
2022/02/22 00:53:47;;;;;;;36.58;6.47;;;;;;;9.73;55.86;100060.41;4842431;28;120835;-82
2022/02/22 00:56:12;;;;;;;28.15;6.05;;;;;;;9.83;55.03;100077.56;4807068;29;122818;-81
2022/02/22 00:58:41;;;;;;;35.80;6.78;;;;;;;9.84;54.98;100079.84;4805389;29;119950;-81
2022/02/22 01:01:10;;;;;;;31.92;6.55;;;;;;;9.77;55.73;100074.69;4814989;29;119830;-81
2022/02/22 01:03:35;;;;;;;34.08;6.22;;;;;;;9.83;55.70;100086.53;4816148;29;122601;-81
2022/02/22 01:06:01;;;;;;;35.95;6.10;;;;;;;9.80;54.84;100092.94;4809623;29;120476;-82
2022/02/22 01:11:03;;;;;;;38.40;7.30;;;;;;;9.78;55.60;100087.16;4813825;28;122870;-82
2022/02/22 01:13:28;;;;;;;38.95;7.10;;;;;;;9.61;55.28;100053.09;4823544;28;120089;-80
2022/02/22 01:15:54;;;;;;;34.05;6.75;;;;;;;9.96;54.89;100111.03;4807672;29;121682;-82
2022/02/22 01:18:30;;;;;;;;;;;;;;;;;;;;;
2022/02/22 01:20:56;;;;;;;28.77;5.70;;;;;;;9.62;54.91;100087.47;4805411;29;121758;-82
2022/02/22 01:23:22;;;;;;;33.67;6.72;;;;;;;9.56;53.67;100089.31;4784124;29;123079;-80
2022/02/22 01:25:50;;;;;;;32.95;5.90;;;;;;;9.31;53.50;100054.81;4802666;29;119836;-83
2022/02/22 01:28:19;;;;;;;35.40;6.85;;;;;;;9.34;53.73;100067.56;4792037;29;121858;-80
2022/02/22 01:30:45;;;;;;;33.97;6.03;;;;;;;9.44;54.62;100087.47;4808118;29;120975;-80
2022/02/22 01:33:11;;;;;;;28.15;6.10;;;;;;;9.38;53.58;100092.03;4808455;29;119671;-81
2022/02/22 01:35:40;;;;;;;27.88;5.70;;;;;;;9.69;53.88;100141.16;4823157;29;121938;-80
2022/02/22 01:38:06;;;;;;;31.00;6.55;;;;;;;9.12;53.79;100058.75;4812434;29;119615;-82
2022/02/22 01:40:32;;;;;;;28.42;6.47;;;;;;;9.30;54.13;100082.63;4834289;29;122448;-82
2022/02/22 01:43:04;;;;;;;32.45;6.00;;;;;;;9.34;56.02;100092.19;4819855;29;122773;-81
2022/02/22 01:45:30;;;;;;;29.55;6.97;;;;;;;9.22;54.80;100093.84;4822391;29;119313;-81
2022/02/22 01:47:58;;;;;;;34.55;7.20;;;;;;;9.24;55.12;100107.09;4820971;29;122287;-81
2022/02/22 01:50:24;;;;;;;33.58;8.27;;;;;;;9.19;54.62;100115.91;4807649;29;122958;-84
2022/02/22 01:52:50;;;;;;;39.53;9.60;;;;;;;9.15;55.05;100118.78;4836390;29;119565;-81
2022/02/22 01:55:18;;;;;;;38.15;9.13;;;;;;;9.26;54.77;100136.75;4827617;29;119590;-81
2022/02/22 01:57:45;;;;;;;30.58;5.65;;;;;;;9.41;54.27;100165.78;4821846;29;123261;-81
2022/02/22 02:00:15;;;;;;;32.72;7.68;;;;;;;9.13;55.23;100132.16;4813353;29;120897;-81
2022/02/22 02:02:43;;;;;;;28.42;7.88;;;;;;;9.35;55.40;100167.63;4810498;29;121166;-81
2022/02/22 02:05:12;;;;;;;36.53;8.90;;;;;;;9.33;55.54;100164.56;4815674;29;119905;-81
2022/02/22 02:07:37;;;;;;;33.85;7.30;;;;;;;9.29;55.84;100163.97;4815344;29;121998;-81
2022/02/22 02:10:03;;;;;;;33.53;7.50;;;;;;;9.16;56.05;100153.13;4817325;29;123462;-81
2022/02/22 02:12:39;;;;;;;35.60;6.65;;;;;;;9.19;56.08;100148.72;4816041;29;119933;-82
2022/02/22 02:15:07;;;;;;;36.55;6.30;;;;;;;9.07;56.16;100141.41;4814030;29;123929;-81
2022/02/22 02:17:35;;;;;;;31.30;6.32;;;;;;;9.31;56.45;100169.75;4817151;29;120585;-81
2022/02/22 02:20:06;;;;;;;32.88;6.13;;;;;;;9.26;56.27;100194.22;4819015;29;120585;-81
2022/02/22 02:22:32;;;;;;;35.72;6.35;;;;;;;9.11;57.39;100175.63;4828834;29;120042;-81
2022/02/22 02:24:57;;;;;;;31.23;5.85;;;;;;;9.03;57.20;100157.97;4816035;29;119648;-82
2022/02/22 02:27:26;;;;;;;25.70;6.43;;;;;;;9.26;56.88;100188.75;4829757;29;121648;-81
2022/02/22 02:29:54;;;;;;;31.42;6.43;;;;;;;9.26;57.80;100202.44;4809197;29;120677;-81
2022/02/22 02:32:21;;;;;;;34.15;6.88;;;;;;;9.06;57.70;100184.44;4823109;29;120460;-81
2022/02/22 02:34:49;;;;;;;28.77;6.15;;;;;;;9.10;56.95;100217.88;4805848;29;120976;-80
2022/02/22 02:37:14;;;;;;;37.03;7.18;;;;;;;8.90;56.76;100190.91;4816704;29;124179;-80
2022/02/22 02:39:40;;;;;;;30.27;6.03;;;;;;;8.98;57.45;100215.25;4805723;29;119868;-81
2022/02/22 02:42:06;;;;;;;36.97;6.03;;;;;;;8.95;57.58;100210.66;4814937;29;121960;-81
2022/02/22 02:44:32;;;;;;;27.73;6.07;;;;;;;8.91;57.23;100206.09;4824638;29;119574;-81
2022/02/22 02:46:58;;;;;;;31.45;6.00;;;;;;;8.90;57.09;100201.09;4825212;29;119486;-81
2022/02/22 02:49:24;;;;;;;27.60;5.20;;;;;;;9.16;57.31;100262.59;4822693;29;120105;-81
2022/02/22 02:51:49;;;;;;;30.40;5.95;;;;;;;8.98;57.01;100232.41;4810067;29;124697;-82
2022/02/22 02:54:15;;;;;;;30.17;6.40;;;;;;;8.99;56.61;100244.91;4806227;29;122298;-81
2022/02/22 02:56:41;;;;;;;30.50;6.20;;;;;;;8.86;56.43;100234.03;4811025;29;122816;-81
2022/02/22 02:59:09;;;;;;;31.98;6.10;;;;;;;8.99;57.92;100250.38;4824726;29;121314;-81
2022/02/22 03:01:38;;;;;;;26.67;5.53;;;;;;;9.10;56.63;100277.31;4810125;29;119474;-81
2022/02/22 03:04:10;;;;;;;26.98;6.47;;;;;;;9.19;55.93;100288.28;4813114;29;121635;-81
2022/02/22 03:06:35;;;;;;;35.28;6.30;;;;;;;8.89;55.88;100251.53;4809922;29;121891;-81
2022/02/22 03:09:02;;;;;;;35.20;6.20;;;;;;;9.00;56.56;100279.25;4816240;29;123317;-81
2022/02/22 03:11:28;;;;;;;27.70;5.78;;;;;;;8.94;55.27;100270.09;4820766;29;119948;-81
2022/02/22 03:13:54;;;;;;;30.42;5.82;;;;;;;9.11;55.57;100298.75;4807866;29;120028;-81
2022/02/22 03:16:20;;;;;;;33.70;6.10;;;;;;;9.14;55.74;100299.81;4811617;29;123037;-81
2022/02/22 03:18:46;;;;;;;31.15;5.88;;;;;;;8.93;55.66;100266.59;4808994;29;119886;-82
2022/02/22 03:21:13;;;;;;;30.63;5.97;;;;;;;9.14;56.35;100289.63;4810500;29;122443;-81
2022/02/22 03:23:39;;;;;;;30.27;5.82;;;;;;;9.23;56.18;100308.84;4792184;29;122730;-81
2022/02/22 03:26:08;;;;;;;28.20;5.50;;;;;;;9.45;55.76;100336.13;4815835;29;121165;-80
2022/02/22 03:28:34;;;;;;;33.00;6.55;;;;;;;9.13;55.75;100288.13;4814377;29;122086;-81
2022/02/22 03:31:03;;;;;;;29.23;5.70;;;;;;;9.40;55.28;100325.00;4813768;29;119941;-80
2022/02/22 03:33:29;;;;;;;25.08;5.95;;;;;;;9.50;54.97;100343.78;4813530;29;121865;-81
2022/02/22 03:35:55;;;;;;;32.67;6.15;;;;;;;9.23;54.68;100302.63;4827678;29;120037;-81
2022/02/22 03:38:21;;;;;;;24.95;5.30;;;;;;;9.19;53.98;100301.97;4828488;29;119639;-80
2022/02/22 03:40:47;;;;;;;34.25;6.85;;;;;;;9.49;54.16;100355.94;4834027;29;119615;-81
2022/02/22 03:43:12;;;;;;;30.50;5.68;;;;;;;9.40;53.97;100352.38;4830034;29;122479;-81
2022/02/22 03:45:41;;;;;;;24.50;4.95;;;;;;;9.58;54.38;100385.31;4818681;29;119619;-81
2022/02/22 03:48:07;;;;;;;29.67;6.05;;;;;;;9.38;55.61;100363.78;4809382;29;120077;-80
2022/02/22 03:50:33;;;;;;;23.05;5.28;;;;;;;9.18;55.55;100366.88;4823198;29;119867;-81
2022/02/22 03:52:59;;;;;;;33.80;6.45;;;;;;;9.27;55.50;100381.84;4806605;29;121900;-80
2022/02/22 03:55:27;;;;;;;27.55;5.82;;;;;;;9.29;56.47;100384.88;4804949;29;123004;-81
2022/02/22 03:58:00;;;;;;;28.10;5.90;;;;;;;9.17;56.37;100394.69;4825643;29;119966;-81
2022/02/22 04:00:27;;;;;;;27.05;6.63;;;;;;;9.32;56.68;100422.31;4805437;29;121789;-81
2022/02/22 04:02:52;;;;;;;32.45;6.13;;;;;;;9.30;56.84;100411.81;4819246;29;122849;-80
2022/02/22 04:05:20;;;;;;;38.50;7.05;;;;;;;9.30;56.47;100408.31;4807343;29;119487;-80
2022/02/22 04:07:50;;;;;;;29.67;6.60;;;;;;;9.13;56.27;100389.34;4841283;28;119880;-80
2022/02/22 04:10:16;;;;;;;31.17;5.90;;;;;;;9.26;56.39;100424.88;4835922;28;119563;-81
2022/02/22 04:12:42;;;;;;;33.22;6.38;;;;;;;8.86;55.99;100378.25;4807009;29;119762;-80
2022/02/22 04:15:09;;;;;;;36.83;6.30;;;;;;;9.31;56.63;100457.13;4799075;29;122792;-81
2022/02/22 04:17:36;;;;;;;36.05;6.82;;;;;;;9.06;56.65;100432.63;4800883;29;119446;-81
2022/02/22 04:20:05;;;;;;;31.60;7.07;;;;;;;9.11;56.49;100440.25;4821744;29;120828;-81
2022/02/22 04:22:31;;;;;;;41.03;6.60;;;;;;;8.99;56.14;100436.41;4822607;29;120458;-80
2022/02/22 04:24:57;;;;;;;39.28;7.28;;;;;;;8.93;56.75;100438.16;4823140;29;119837;-81
2022/02/22 04:27:23;;;;;;;34.08;6.43;;;;;;;9.21;57.02;100471.94;4839491;28;119986;-80
2022/02/22 04:29:51;;;;;;;35.92;6.32;;;;;;;9.27;56.91;100483.09;4812558;29;121426;-81
2022/02/22 04:32:17;;;;;;;35.60;6.38;;;;;;;9.17;56.95;100479.53;4807211;29;120229;-81
2022/02/22 04:34:43;;;;;;;37.85;6.35;;;;;;;8.93;56.93;100440.88;4809022;29;119995;-79
2022/02/22 04:37:15;;;;;;;33.47;7.15;;;;;;;8.77;56.94;100411.75;4820695;29;120059;-80
2022/02/22 04:39:41;;;;;;;31.02;6.57;;;;;;;8.86;56.54;100438.41;4824446;29;119619;-81
2022/02/22 04:42:07;;;;;;;28.42;6.65;;;;;;;8.83;56.73;100436.56;4809927;29;121273;-81
2022/02/22 04:44:34;;;;;;;41.13;7.30;;;;;;;8.83;56.44;100439.31;4810898;29;119599;-81
2022/02/22 04:47:00;;;;;;;35.55;6.72;;;;;;;9.25;56.80;100512.91;4807832;29;122402;-81
2022/02/22 04:49:26;;;;;;;31.73;6.93;;;;;;;8.91;56.43;100465.19;4805974;29;122906;-80
2022/02/22 04:51:54;;;;;;;31.05;6.30;;;;;;;9.11;55.70;100509.44;4809182;29;119597;-81
2022/02/22 04:54:20;;;;;;;44.60;8.00;;;;;;;8.92;56.53;100469.44;4826722;29;121286;-81
2022/02/22 04:56:45;;;;;;;37.78;6.88;;;;;;;9.27;56.46;100527.66;4799156;29;119912;-81
2022/02/22 04:59:13;;;;;;;41.70;7.47;;;;;;;8.85;56.13;100465.00;4811783;29;121962;-81
2022/02/22 05:01:41;;;;;;;36.55;6.60;;;;;;;8.91;57.24;100473.41;4808407;29;121657;-80
2022/02/22 05:04:07;;;;;;;39.85;8.27;;;;;;;8.83;56.80;100461.94;4825644;29;119929;-80
2022/02/22 05:06:33;;;;;;;36.05;7.40;;;;;;;8.91;56.55;100476.91;4809877;29;121037;-81
2022/02/22 05:09:01;;;;;;;33.83;7.38;;;;;;;8.93;56.97;100481.91;4810257;29;120049;-81
2022/02/22 05:11:26;;;;;;;39.67;7.95;;;;;;;9.15;57.26;100509.31;4827769;29;119476;-80
2022/02/22 05:13:52;;;;;;;37.35;7.78;;;;;;;9.04;57.82;100495.25;4812348;29;119540;-81
2022/02/22 05:16:18;;;;;;;43.97;8.35;;;;;;;9.26;57.07;100534.34;4813320;29;121157;-80
2022/02/22 05:18:43;;;;;;;42.60;7.72;;;;;;;8.96;57.43;100485.75;4803917;29;119796;-81
2022/02/22 05:21:09;;;;;;;39.70;7.70;;;;;;;8.81;57.43;100469.84;4807609;29;120087;-80
2022/02/22 05:23:35;;;;;;;39.65;7.72;;;;;;;8.80;57.06;100470.28;4802924;29;120411;-80
2022/02/22 05:26:04;;;;;;;35.92;7.22;;;;;;;9.04;56.61;100497.97;4804567;29;119817;-80
2022/02/22 05:28:30;;;;;;;40.75;6.95;;;;;;;9.10;57.26;100518.84;4804540;29;123383;-81
2022/02/22 05:30:56;;;;;;;45.25;7.32;;;;;;;8.77;57.61;100477.41;4804374;29;120733;-80
2022/02/22 05:33:23;;;;;;;37.83;6.88;;;;;;;9.19;56.99;100546.28;4807700;29;121576;-81
2022/02/22 05:35:50;;;;;;;36.85;7.07;;;;;;;8.90;57.42;100499.22;4804064;29;119699;-81
2022/02/22 05:38:17;;;;;;;39.85;7.30;;;;;;;8.77;57.18;100491.06;4806971;29;120844;-81
2022/02/22 05:40:43;;;;;;;37.00;6.80;;;;;;;9.19;57.46;100557.22;4805841;29;119986;-81
2022/02/22 05:43:09;;;;;;;40.55;7.53;;;;;;;9.18;57.69;100566.66;4823511;29;119567;-81
2022/02/22 05:45:35;;;;;;;37.03;6.50;;;;;;;9.01;57.31;100524.25;4822503;29;119630;-81
2022/02/22 05:48:09;;;;;;;43.33;7.43;;;;;;;8.82;56.97;100501.44;4792182;29;123100;-80
2022/02/22 05:50:38;;;;;;;34.92;7.65;;;;;;;8.81;57.49;100507.34;4810030;29;119338;-80
2022/02/22 05:53:09;;;;;;;43.88;6.97;;;;;;;9.08;57.70;100539.66;4825289;29;122251;-80
2022/02/22 05:55:37;;;;;;;41.85;6.93;;;;;;;8.70;57.72;100490.53;4813394;29;123742;-81
2022/02/22 05:58:06;;;;;;;42.00;6.97;;;;;;;8.89;57.61;100538.72;4826181;29;122109;-81
2022/02/22 06:00:31;;;;;;;37.78;7.13;;;;;;;8.76;58.62;100516.13;4806123;29;120365;-81
2022/02/22 06:02:57;;;;;;;33.38;6.63;;;;;;;8.62;58.20;100487.28;4810880;29;120045;-81
2022/02/22 06:05:23;;;;;;;39.90;6.53;;;;;;;8.94;57.89;100549.09;4809296;29;121912;-81
2022/02/22 06:07:49;;;;;;;31.48;6.43;;;;;;;8.86;57.96;100542.34;4791152;29;122830;-80
2022/02/22 06:10:16;;;;;;;38.03;7.85;;;;;;;9.03;58.23;100573.06;4806894;29;120710;-81
2022/02/22 06:12:45;;;;;;;34.85;6.65;;;;;;;8.89;58.24;100563.34;4809148;29;119978;-81
2022/02/22 06:15:12;;;;;;;36.85;6.63;;;;;;;8.89;57.86;100563.34;4803439;29;120058;-80
2022/02/22 06:17:39;;;;;;;36.10;7.65;;;;;;;8.96;57.87;100587.72;4809740;29;119582;-81
2022/02/22 06:20:06;;;;;;;37.20;7.07;;;;;;;8.69;57.84;100549.91;4807500;29;120099;-81
2022/02/22 06:22:32;;;;;;;36.60;7.10;;;;;;;8.88;58.95;100564.53;4806281;29;119492;-80
2022/02/22 06:24:58;;;;;;;37.05;6.32;;;;;;;9.15;57.88;100613.28;4820941;29;119870;-81
2022/02/22 06:27:24;;;;;;;41.00;7.32;;;;;;;8.74;57.98;100551.31;4806708;29;121161;-80
2022/02/22 06:29:50;;;;;;;39.85;6.95;;;;;;;8.78;57.70;100552.00;4811222;29;121797;-80
2022/02/22 06:32:15;;;;;;;41.15;7.03;;;;;;;8.81;57.61;100551.13;4804933;29;120568;-79
2022/02/22 06:34:42;;;;;;;34.35;6.43;;;;;;;8.84;58.10;100566.63;4805399;29;119969;-81
2022/02/22 06:37:07;;;;;;;32.83;6.35;;;;;;;9.12;57.68;100614.19;4819791;29;119616;-80
2022/02/22 06:39:35;;;;;;;40.88;6.68;;;;;;;8.83;57.45;100570.56;4821663;29;120732;-79
2022/02/22 06:42:01;;;;;;;38.60;6.65;;;;;;;8.71;57.54;100552.22;4835023;28;120664;-81
2022/02/22 06:44:27;;;;;;;29.95;6.50;;;;;;;8.87;58.16;100579.44;4821832;29;122275;-81
2022/02/22 06:46:55;;;;;;;32.65;7.03;;;;;;;8.71;57.88;100555.72;4809791;29;122944;-81
2022/02/22 06:49:24;;;;;;;53.03;7.50;;;;;;;8.83;57.96;100570.56;4811739;29;119879;-80
2022/02/22 06:51:50;;;;;;;37.53;7.50;;;;;;;8.91;57.84;100588.28;4805242;29;121912;-80
2022/02/22 06:54:18;;;;;;;36.65;7.10;;;;;;;8.86;57.81;100591.56;4807174;29;122156;-81
2022/02/22 06:56:43;;;;;;;39.70;7.00;;;;;;;8.87;57.75;100582.16;4823982;29;119917;-81
2022/02/22 06:59:09;;;;;;;34.30;6.82;;;;;;;8.84;58.54;100583.06;4825014;29;119406;-81
2022/02/22 07:01:35;;;;;;;34.88;6.88;;;;;;;8.90;57.97;100592.22;4827818;29;123364;-81
2022/02/22 07:04:01;;;;;;;41.83;7.53;;;;;;;9.11;59.14;100620.84;4807768;29;121974;-82
2022/02/22 07:06:27;;;;;;;37.03;7.25;;;;;;;9.25;58.14;100641.53;4808734;29;120282;-81
2022/02/22 07:08:52;;;;;;;29.63;6.22;;;;;;;9.17;57.79;100622.59;4806839;29;120086;-81
2022/02/22 07:11:18;;;;;;;35.45;7.18;;;;;;;9.24;57.43;100629.81;4806374;29;121868;-80
2022/02/22 07:13:44;;;;;;;34.50;7.03;;;;;;;9.20;57.80;100615.47;4812165;29;122844;-81
2022/02/22 07:16:17;;;;;;;28.30;6.45;;;;;;;9.22;57.53;100600.13;4811721;29;119950;-81
2022/02/22 07:18:43;;;;;;;40.22;7.00;;;;;;;9.36;56.82;100620.78;4828444;29;119369;-81
2022/02/22 07:21:12;;;;;;;38.00;7.07;;;;;;;9.45;57.17;100631.03;4816468;29;119931;-81
2022/02/22 07:23:38;;;;;;;39.08;6.55;;;;;;;9.46;57.17;100627.09;4798091;29;119565;-81
2022/02/22 07:26:04;;;;;;;33.78;6.32;;;;;;;9.47;57.15;100634.13;4817508;29;120118;-81
2022/02/22 07:28:32;;;;;;;34.28;6.80;;;;;;;9.40;56.94;100634.34;4842945;28;119888;-80
2022/02/22 07:30:58;;;;;;;28.80;5.30;;;;;;;9.41;56.86;100641.34;4823856;29;122716;-80
2022/02/22 07:33:25;;;;;;;35.28;6.45;;;;;;;9.23;57.38;100618.09;4807419;29;122723;-80
2022/02/22 07:35:51;;;;;;;33.25;6.05;;;;;;;9.31;57.36;100615.13;4812960;29;119209;-82
2022/02/22 07:38:17;;;;;;;32.35;6.18;;;;;;;9.43;57.05;100633.47;4814476;29;122075;-81
2022/02/22 07:40:43;;;;;;;36.65;6.05;;;;;;;9.33;57.00;100610.72;4811828;29;120300;-81
2022/02/22 07:43:12;;;;;;;36.25;6.53;;;;;;;9.43;56.81;100619.78;4822036;29;119683;-80
2022/02/22 07:45:38;;;;;;;34.42;7.45;;;;;;;9.47;57.12;100637.63;4833848;29;120541;-82
2022/02/22 07:48:04;;;;;;;33.63;6.65;;;;;;;9.62;57.31;100656.28;4833307;29;119373;-80
2022/02/22 07:50:30;;;;;;;37.75;6.70;;;;;;;9.40;57.13;100623.41;4819363;29;119331;-82
2022/02/22 07:52:57;;;;;;;29.65;7.15;;;;;;;9.43;57.08;100631.50;4820866;29;122785;-81
2022/02/22 07:55:23;;;;;;;33.30;6.70;;;;;;;9.47;57.26;100631.38;4814433;29;120217;-81
2022/02/22 07:57:49;;;;;;;31.70;6.38;;;;;;;9.60;57.07;100645.78;4798869;29;122013;-81
2022/02/22 08:00:14;;;;;;;38.70;6.10;;;;;;;9.82;57.40;100679.44;4814054;29;119886;-81
2022/02/22 08:02:42;;;;;;;32.65;6.28;;;;;;;9.66;57.47;100645.97;4826623;29;119513;-81
2022/02/22 08:05:10;;;;;;;32.90;6.30;;;;;;;9.68;57.37;100643.56;4816216;29;119626;-81
2022/02/22 08:07:39;;;;;;;28.65;6.10;;;;;;;9.53;57.55;100616.69;4811351;29;119646;-81
2022/02/22 08:10:07;;;;;;;33.25;6.53;;;;;;;9.61;57.83;100628.16;4812303;29;119583;-80
2022/02/22 08:12:34;;;;;;;35.55;6.20;;;;;;;9.70;57.64;100639.19;4796194;29;123702;-81
2022/02/22 08:15:00;;;;;;;31.80;6.03;;;;;;;9.75;58.12;100646.84;4812639;29;119637;-81
2022/02/22 08:17:26;;;;;;;36.08;6.28;;;;;;;10.17;57.65;100704.03;4824204;29;121878;-80
2022/02/22 08:19:51;;;;;;;33.78;7.28;;;;;;;9.99;58.06;100674.56;4809281;29;120213;-81
2022/02/22 08:22:20;;;;;;;38.00;7.00;;;;;;;9.97;58.33;100657.03;4787011;29;119681;-81
2022/02/22 08:24:46;;;;;;;36.55;6.43;;;;;;;10.22;57.48;100684.34;4813092;29;122272;-83
2022/02/22 08:27:14;;;;;;;29.80;6.60;;;;;;;10.48;57.62;100711.59;4809245;29;120108;-83
2022/02/22 08:29:41;;;;;;;37.47;6.40;;;;;;;10.41;57.91;100685.97;4796576;29;122357;-82
2022/02/22 08:32:09;;;;;;;33.15;6.45;;;;;;;10.44;59.78;100671.38;4794061;29;120771;-81
2022/02/22 08:34:35;;;;;;;38.92;6.22;;;;;;;10.40;57.93;100635.06;4801178;29;120867;-81
2022/02/22 08:37:03;;;;;;;35.40;6.78;;;;;;;10.40;57.57;100629.56;4811067;29;122342;-82
2022/02/22 08:39:29;;;;;;;36.17;6.03;;;;;;;10.60;57.10;100633.94;4793928;29;123093;-81
2022/02/22 08:41:55;;;;;;;33.63;6.20;;;;;;;10.86;57.69;100667.41;4810770;29;119575;-83
2022/02/22 08:44:26;;;;;;;31.17;6.10;;;;;;;10.83;57.78;100655.34;4802652;29;122050;-80
2022/02/22 08:46:54;;;;;;;29.38;5.15;;;;;;;11.10;57.04;100686.84;4793919;29;123546;-80
2022/02/22 08:49:20;;;;;;;32.85;6.22;;;;;;;10.80;58.44;100642.53;4797595;29;120335;-82
2022/02/22 08:51:46;;;;;;;34.05;5.70;;;;;;;11.13;57.45;100689.47;4798313;29;120183;-82
2022/02/22 08:54:14;;;;;;;29.98;5.38;;;;;;;11.22;57.16;100689.47;4812199;29;120458;-82
2022/02/22 08:56:40;;;;;;;32.25;5.80;;;;;;;11.25;58.45;100676.81;4795168;29;122068;-80
2022/02/22 08:59:05;;;;;;;32.75;5.85;;;;;;;11.26;56.66;100661.88;4779983;29;123315;-81
2022/02/22 09:01:34;;;;;;;33.50;5.82;;;;;;;11.58;56.54;100720.97;4794257;29;119546;-81
2022/02/22 09:04:00;;;;;;;28.67;5.63;;;;;;;11.29;55.67;100677.44;4793159;29;121942;-83
2022/02/22 09:06:26;;;;;;;32.88;6.00;;;;;;;11.27;56.23;100664.16;4809494;29;122820;-81
2022/02/22 09:08:52;;;;;;;33.05;6.00;;;;;;;11.39;56.65;100668.00;4797764;29;119844;-82
2022/02/22 09:11:17;;;;;;;32.85;6.07;;;;;;;11.51;56.54;100678.09;4796737;29;122532;-84
2022/02/22 09:13:46;;;;;;;29.90;5.97;;;;;;;11.68;56.12;100698.56;4795362;29;119695;-83
2022/02/22 09:16:13;;;;;;;30.40;5.55;;;;;;;11.94;58.99;100725.75;4811409;29;120274;-84
2022/02/22 09:18:41;;;;;;;26.40;5.35;;;;;;;11.63;58.15;100662.69;4796587;29;123684;-81
2022/02/22 09:21:07;;;;;;;25.48;5.28;;;;;;;12.10;57.94;100733.72;4800118;29;119846;-81
2022/02/22 09:23:33;;;;;;;25.48;6.05;;;;;;;12.03;58.06;100701.00;4779249;29;121056;-82
2022/02/22 09:26:01;;;;;;;27.55;4.90;;;;;;;12.19;55.88;100728.19;4795873;29;122643;-81
2022/02/22 09:28:26;;;;;;;27.98;5.07;;;;;;;11.99;55.02;100697.66;4798198;29;119973;-82
2022/02/22 09:30:55;;;;;;;28.90;5.18;;;;;;;12.13;55.32;100712.78;4811486;29;120139;-83
2022/02/22 09:33:21;;;;;;;31.38;4.85;;;;;;;12.17;54.40;100716.91;4832174;28;120495;-83
2022/02/22 09:35:50;;;;;;;20.45;4.63;;;;;;;12.10;55.95;100697.22;4799323;29;119567;-82
2022/02/22 09:38:16;;;;;;;28.05;4.55;;;;;;;11.97;55.73;100680.88;4780653;29;123113;-84
2022/02/22 09:40:41;;;;;;;28.30;5.20;;;;;;;12.42;57.26;100739.78;4796765;29;120128;-82
2022/02/22 09:43:07;;;;;;;30.27;5.45;;;;;;;12.15;55.59;100696.59;4782857;29;121939;-82
2022/02/22 09:45:33;;;;;;;30.05;5.15;;;;;;;12.26;55.23;100714.13;4813075;29;121464;-82
2022/02/22 09:48:04;;;;;;;26.73;5.00;;;;;;;12.40;54.45;100740.25;4812458;29;120857;-83
2022/02/22 09:50:32;;;;;;;25.90;5.05;;;;;;;12.51;54.01;100762.53;4794513;29;121811;-82
2022/02/22 09:52:58;;;;;;;25.27;4.75;;;;;;;12.44;57.93;100743.59;4815309;29;120017;-83
2022/02/22 09:55:24;;;;;;;24.45;6.05;;;;;;;12.55;57.62;100754.13;4827458;28;120843;-81
2022/02/22 09:57:51;;;;;;;23.65;5.05;;;;;;;12.54;56.01;100758.13;4810519;29;121080;-85
2022/02/22 10:00:22;;;;;;;31.63;5.60;;;;;;;12.41;54.27;100735.50;4793165;29;120528;-83
2022/02/22 10:02:53;;;;;;;36.40;5.93;;;;;;;12.52;55.35;100750.28;4810952;29;120136;-85
2022/02/22 10:05:22;;;;;;;24.48;5.30;;;;;;;12.47;57.07;100731.66;4795722;29;123738;-85
2022/02/22 10:07:50;;;;;;;26.83;5.20;;;;;;;12.62;55.88;100744.78;4792765;29;120007;-84
2022/02/22 10:10:16;;;;;;;26.50;5.32;;;;;;;12.61;53.92;100744.03;4811438;29;119646;-84
2022/02/22 10:12:42;;;;;;;27.35;5.40;;;;;;;12.57;56.00;100748.94;4796326;29;120387;-84
2022/02/22 10:15:11;;;;;;;39.58;6.55;;;;;;;12.62;54.57;100761.28;4799905;29;119831;-83
2022/02/22 10:17:36;;;;;;;27.33;5.88;;;;;;;12.64;52.80;100759.59;4798025;29;120506;-86
2022/02/22 10:20:04;;;;;;;32.97;5.70;;;;;;;12.67;53.00;100774.44;4811592;29;121000;-84
2022/02/22 10:22:31;;;;;;;34.85;6.78;;;;;;;12.68;53.99;100765.72;4795015;29;124356;-84
2022/02/22 10:25:08;;;;;;;32.17;6.22;;;;;;;12.70;53.60;100766.00;4778719;29;122898;-83
2022/02/22 10:27:50;;;;;;;30.40;5.78;;;;;;;12.64;52.88;100748.59;4801529;29;120299;-84
2022/02/22 10:30:24;;;;;;;26.77;6.13;;;;;;;12.72;53.85;100749.03;4812617;29;119494;-85
2022/02/22 10:32:50;;;;;;;29.13;5.40;;;;;;;12.72;53.00;100744.28;4794570;29;122848;-84
2022/02/22 10:35:30;;;;;;;30.92;5.90;;;;;;;12.80;51.92;100745.50;4780093;29;120540;-84
2022/02/22 10:37:56;;;;;;;26.60;5.53;;;;;;;12.78;55.11;100731.44;4799355;29;119745;-84
2022/02/22 10:40:30;;;;;;;22.60;5.40;;;;;;;12.94;54.95;100733.06;4780651;29;120483;-84
2022/02/22 10:42:56;;;;;;;27.60;5.35;;;;;;;12.89;52.53;100720.69;4811215;29;120054;-85
2022/02/22 10:45:23;;;;;;;32.10;6.10;;;;;;;12.83;51.39;100708.03;4778791;29;123626;-81
2022/02/22 10:47:50;;;;;;;27.13;6.10;;;;;;;12.83;52.33;100700.53;4791703;29;119716;-84
2022/02/22 10:50:23;;;;;;;33.13;6.60;;;;;;;12.84;52.36;100707.56;4793424;29;121735;-82
2022/02/22 10:52:50;;;;;;;33.60;6.60;;;;;;;12.88;53.78;100710.91;4790815;29;123079;-82
2022/02/22 10:55:15;;;;;;;33.00;6.28;;;;;;;12.80;52.72;100684.94;4795296;29;119667;-83
2022/02/22 10:57:41;;;;;;;32.53;6.57;;;;;;;12.87;52.43;100698.38;4794101;29;120098;-82
2022/02/22 11:00:07;;;;;;;32.35;6.03;;;;;;;12.91;51.83;100700.94;4801811;29;120309;-82
2022/02/22 11:02:34;;;;;;;30.80;6.00;;;;;;;12.96;50.62;100713.31;4793841;29;121892;-83
2022/02/22 11:05:01;;;;;;;33.17;6.30;;;;;;;12.97;51.10;100715.59;4796204;29;123899;-84
2022/02/22 11:07:29;;;;;;;32.20;6.30;;;;;;;12.98;50.86;100722.63;4811118;29;119816;-85
2022/02/22 11:09:56;;;;;;;29.55;6.30;;;;;;;12.98;49.90;100713.59;4809349;29;122529;-83
2022/02/22 11:12:22;;;;;;;32.63;5.72;;;;;;;12.95;51.48;100725.56;4781198;29;123285;-82
2022/02/22 11:14:48;;;;;;;34.67;6.40;;;;;;;12.84;50.95;100713.06;4790723;29;119733;-82
2022/02/22 11:17:22;;;;;;;28.65;6.13;;;;;;;12.91;52.47;100725.72;4796175;29;121666;-85
2022/02/22 11:19:50;;;;;;;26.38;5.65;;;;;;;12.94;52.37;100730.28;4809730;29;120459;-85